Terminal Aerodrome Forecast
Issued by NWS Upton, NY

Home | Current Version | Previous Version | Text Only | Print | Product List | Glossary On
Versions: 1 2 3 4 5 6 7 8 9 10 11 12 13 14 15 16 17 18 19 20 21 22 23 24 25 26 27
000
FTUS41 KOKX 262335
TAFJFK
TAF
KJFK 262335Z 2700/2806 20008KT P6SM BKN070
     FM270200 27005KT P6SM BKN070
     FM270400 32007KT P6SM SCT070
     FM271400 32012KT P6SM BKN060
     FM271700 32013G19KT P6SM BKN060
     FM272000 32015G22KT P6SM BKN060 PROB30 2720/2724 -SHRA
     FM280000 33014G20KT P6SM SCT060=

USA.gov is the U.S. government's official web portal to all federal, state and local government web resources and services.